sensor_id;sensor_type;location;lat;lon;timestamp;pressure;altitude;pressure_sealevel;temperature;humidity
79273;BME280;68718;-19.302;146.788;2023-04-08T00:00:09;101047.51;;;31.05;71.20
79273;BME280;68718;-19.302;146.788;2023-04-08T00:02:33;101047.24;;;30.73;69.86
79273;BME280;68718;-19.302;146.788;2023-04-08T00:04:59;101044.14;;;31.58;69.04
79273;BME280;68718;-19.302;146.788;2023-04-08T00:07:25;101043.97;;;30.76;70.49
79273;BME280;68718;-19.302;146.788;2023-04-08T00:09:50;101046.31;;;31.25;69.68
79273;BME280;68718;-19.302;146.788;2023-04-08T00:12:15;101049.05;;;31.75;68.11
79273;BME280;68718;-19.302;146.788;2023-04-08T00:14:42;101049.72;;;31.79;67.59
79273;BME280;68718;-19.302;146.788;2023-04-08T00:17:06;101053.40;;;31.64;65.15
79273;BME280;68718;-19.302;146.788;2023-04-08T00:19:31;101052.86;;;30.92;67.01
79273;BME280;68718;-19.302;146.788;2023-04-08T00:21:59;101055.68;;;31.28;67.67
79273;BME280;68718;-19.302;146.788;2023-04-08T00:24:22;101055.13;;;31.78;66.72
79273;BME280;68718;-19.302;146.788;2023-04-08T00:26:47;101055.43;;;31.89;65.22
79273;BME280;68718;-19.302;146.788;2023-04-08T00:29:12;101056.64;;;32.85;63.08
79273;BME280;68718;-19.302;146.788;2023-04-08T00:31:37;101050.35;;;33.16;61.93
79273;BME280;68718;-19.302;146.788;2023-04-08T00:34:03;101050.91;;;31.79;65.97
79273;BME280;68718;-19.302;146.788;2023-04-08T00:36:28;101043.71;;;32.19;65.15
79273;BME280;68718;-19.302;146.788;2023-04-08T00:38:53;101043.16;;;31.54;61.77
79273;BME280;68718;-19.302;146.788;2023-04-08T00:41:20;101038.45;;;32.56;60.50
79273;BME280;68718;-19.302;146.788;2023-04-08T00:43:44;101031.99;;;33.11;57.58
79273;BME280;68718;-19.302;146.788;2023-04-08T00:46:09;101029.68;;;32.52;57.85
79273;BME280;68718;-19.302;146.788;2023-04-08T00:48:35;101021.11;;;32.93;57.85
79273;BME280;68718;-19.302;146.788;2023-04-08T00:51:01;101018.72;;;32.23;62.01
79273;BME280;68718;-19.302;146.788;2023-04-08T00:53:29;101014.86;;;33.47;60.29
79273;BME280;68718;-19.302;146.788;2023-04-08T00:55:51;101012.53;;;33.23;60.29
79273;BME280;68718;-19.302;146.788;2023-04-08T00:58:17;101002.51;;;33.68;58.78
79273;BME280;68718;-19.302;146.788;2023-04-08T01:00:47;100997.20;;;34.40;55.76
79273;BME280;68718;-19.302;146.788;2023-04-08T01:03:13;100998.32;;;34.71;53.61
79273;BME280;68718;-19.302;146.788;2023-04-08T01:05:38;100999.63;;;33.69;56.37
79273;BME280;68718;-19.302;146.788;2023-04-08T01:08:00;100996.36;;;33.37;58.81
79273;BME280;68718;-19.302;146.788;2023-04-08T01:10:28;100996.70;;;32.59;56.91
79273;BME280;68718;-19.302;146.788;2023-04-08T01:12:53;100991.20;;;33.78;56.37
79273;BME280;68718;-19.302;146.788;2023-04-08T01:15:16;100988.58;;;35.00;54.26
79273;BME280;68718;-19.302;146.788;2023-04-08T01:17:43;100985.74;;;35.25;55.04
79273;BME280;68718;-19.302;146.788;2023-04-08T01:20:05;100976.72;;;33.93;56.53
79273;BME280;68718;-19.302;146.788;2023-04-08T01:22:39;100972.57;;;34.47;56.64
79273;BME280;68718;-19.302;146.788;2023-04-08T01:25:00;100968.68;;;34.34;56.97
79273;BME280;68718;-19.302;146.788;2023-04-08T01:27:20;100971.64;;;33.12;62.60
79273;BME280;68718;-19.302;146.788;2023-04-08T01:29:45;100966.44;;;33.82;62.50
79273;BME280;68718;-19.302;146.788;2023-04-08T01:32:11;100957.90;;;33.20;62.27
79273;BME280;68718;-19.302;146.788;2023-04-08T01:34:37;100953.02;;;33.92;60.30
79273;BME280;68718;-19.302;146.788;2023-04-08T01:37:02;100944.99;;;34.68;57.48
79273;BME280;68718;-19.302;146.788;2023-04-08T01:39:27;100943.07;;;34.88;57.67
79273;BME280;68718;-19.302;146.788;2023-04-08T01:41:54;100942.17;;;34.21;56.55
79273;BME280;68718;-19.302;146.788;2023-04-08T01:44:18;100939.73;;;34.82;57.20
79273;BME280;68718;-19.302;146.788;2023-04-08T01:46:43;100935.79;;;33.89;54.09
79273;BME280;68718;-19.302;146.788;2023-04-08T01:49:09;100932.58;;;34.99;51.16
79273;BME280;68718;-19.302;146.788;2023-04-08T01:51:34;100926.30;;;34.63;51.17
79273;BME280;68718;-19.302;146.788;2023-04-08T01:53:59;100922.31;;;35.08;47.77
79273;BME280;68718;-19.302;146.788;2023-04-08T01:56:26;100913.72;;;35.82;48.23
79273;BME280;68718;-19.302;146.788;2023-04-08T01:58:52;100911.10;;;35.78;47.09
79273;BME280;68718;-19.302;146.788;2023-04-08T02:01:18;100908.12;;;34.96;48.09
79273;BME280;68718;-19.302;146.788;2023-04-08T02:03:43;100904.14;;;35.78;48.80
79273;BME280;68718;-19.302;146.788;2023-04-08T02:06:06;100898.08;;;36.18;47.72
79273;BME280;68718;-19.302;146.788;2023-04-08T02:08:32;100893.30;;;35.89;50.95
79273;BME280;68718;-19.302;146.788;2023-04-08T02:10:57;100886.49;;;36.26;51.08
79273;BME280;68718;-19.302;146.788;2023-04-08T02:13:22;100884.49;;;36.07;51.45
79273;BME280;68718;-19.302;146.788;2023-04-08T02:15:54;100880.09;;;36.18;52.55
79273;BME280;68718;-19.302;146.788;2023-04-08T02:18:14;100876.42;;;35.45;52.38
79273;BME280;68718;-19.302;146.788;2023-04-08T02:20:42;100869.79;;;34.91;48.19
79273;BME280;68718;-19.302;146.788;2023-04-08T02:23:06;100865.96;;;36.15;43.94
79273;BME280;68718;-19.302;146.788;2023-04-08T02:25:29;100863.38;;;35.24;52.95
79273;BME280;68718;-19.302;146.788;2023-04-08T02:27:55;100855.92;;;34.69;57.94
79273;BME280;68718;-19.302;146.788;2023-04-08T02:30:19;100849.82;;;35.14;57.44
79273;BME280;68718;-19.302;146.788;2023-04-08T02:32:45;100849.92;;;35.49;56.36
79273;BME280;68718;-19.302;146.788;2023-04-08T02:35:12;100841.51;;;35.91;53.59
79273;BME280;68718;-19.302;146.788;2023-04-08T02:37:36;100837.62;;;34.60;56.60
79273;BME280;68718;-19.302;146.788;2023-04-08T02:40:00;100836.28;;;34.63;57.50
79273;BME280;68718;-19.302;146.788;2023-04-08T02:42:26;100836.13;;;34.95;58.77
79273;BME280;68718;-19.302;146.788;2023-04-08T02:44:52;100830.10;;;34.81;55.76
79273;BME280;68718;-19.302;146.788;2023-04-08T02:47:17;100827.42;;;34.36;57.16
79273;BME280;68718;-19.302;146.788;2023-04-08T02:49:42;100817.48;;;34.81;56.61
79273;BME280;68718;-19.302;146.788;2023-04-08T02:52:07;100812.98;;;35.72;55.97
79273;BME280;68718;-19.302;146.788;2023-04-08T02:54:33;100812.78;;;35.89;55.10
79273;BME280;68718;-19.302;146.788;2023-04-08T02:56:58;100812.93;;;35.68;54.47
79273;BME280;68718;-19.302;146.788;2023-04-08T02:59:23;100803.93;;;36.38;53.12
79273;BME280;68718;-19.302;146.788;2023-04-08T03:01:49;100802.70;;;36.55;52.20
79273;BME280;68718;-19.302;146.788;2023-04-08T03:04:14;100803.13;;;35.26;53.93
79273;BME280;68718;-19.302;146.788;2023-04-08T03:06:39;100801.37;;;34.91;55.88
79273;BME280;68718;-19.302;146.788;2023-04-08T03:09:05;100798.50;;;35.01;55.73
79273;BME280;68718;-19.302;146.788;2023-04-08T03:11:30;100800.07;;;34.67;55.53
79273;BME280;68718;-19.302;146.788;2023-04-08T03:13:55;100795.56;;;35.63;53.92
79273;BME280;68718;-19.302;146.788;2023-04-08T03:16:20;100800.08;;;35.45;53.92
79273;BME280;68718;-19.302;146.788;2023-04-08T03:18:46;100794.81;;;36.29;50.29
79273;BME280;68718;-19.302;146.788;2023-04-08T03:21:11;100793.82;;;36.17;51.72
79273;BME280;68718;-19.302;146.788;2023-04-08T03:23:37;100790.71;;;36.04;51.82
79273;BME280;68718;-19.302;146.788;2023-04-08T03:26:02;100792.14;;;35.47;53.24
79273;BME280;68718;-19.302;146.788;2023-04-08T03:28:27;100792.35;;;35.84;53.21
79273;BME280;68718;-19.302;146.788;2023-04-08T03:30:53;100793.57;;;35.89;51.36
79273;BME280;68718;-19.302;146.788;2023-04-08T03:33:18;100789.43;;;36.53;50.88
79273;BME280;68718;-19.302;146.788;2023-04-08T03:35:43;100797.88;;;36.25;52.22
79273;BME280;68718;-19.302;146.788;2023-04-08T03:38:09;100797.53;;;35.29;54.78
79273;BME280;68718;-19.302;146.788;2023-04-08T03:40:34;100794.50;;;35.27;54.36
79273;BME280;68718;-19.302;146.788;2023-04-08T03:43:00;100791.44;;;35.84;50.66
79273;BME280;68718;-19.302;146.788;2023-04-08T03:45:25;100787.75;;;35.72;53.24
79273;BME280;68718;-19.302;146.788;2023-04-08T03:47:50;100786.88;;;35.09;55.05
79273;BME280;68718;-19.302;146.788;2023-04-08T03:50:15;100780.20;;;35.53;54.98
79273;BME280;68718;-19.302;146.788;2023-04-08T03:52:41;100775.52;;;35.62;53.77
79273;BME280;68718;-19.302;146.788;2023-04-08T03:55:07;100775.65;;;35.75;54.28
79273;BME280;68718;-19.302;146.788;2023-04-08T03:57:31;100769.22;;;35.09;55.15
79273;BME280;68718;-19.302;146.788;2023-04-08T03:59:57;100770.78;;;35.67;54.07
79273;BME280;68718;-19.302;146.788;2023-04-08T04:02:22;100764.98;;;36.26;52.03
79273;BME280;68718;-19.302;146.788;2023-04-08T04:04:48;100769.15;;;35.57;54.13
79273;BME280;68718;-19.302;146.788;2023-04-08T04:07:12;100765.39;;;35.24;55.18
79273;BME280;68718;-19.302;146.788;2023-04-08T04:09:38;100764.87;;;36.02;51.97
79273;BME280;68718;-19.302;146.788;2023-04-08T04:12:04;100756.48;;;36.53;49.54
79273;BME280;68718;-19.302;146.788;2023-04-08T04:14:28;100762.82;;;36.40;51.83
79273;BME280;68718;-19.302;146.788;2023-04-08T04:16:54;100766.71;;;36.27;51.48
79273;BME280;68718;-19.302;146.788;2023-04-08T04:19:19;100762.15;;;36.65;49.98
79273;BME280;68718;-19.302;146.788;2023-04-08T04:21:46;100760.33;;;36.08;52.40
79273;BME280;68718;-19.302;146.788;2023-04-08T04:24:09;100761.82;;;35.73;54.10
79273;BME280;68718;-19.302;146.788;2023-04-08T04:26:35;100757.38;;;36.01;53.50
79273;BME280;68718;-19.302;146.788;2023-04-08T04:29:00;100758.37;;;35.67;52.16
79273;BME280;68718;-19.302;146.788;2023-04-08T04:31:25;100758.22;;;36.76;50.55
79273;BME280;68718;-19.302;146.788;2023-04-08T04:33:51;100755.89;;;36.56;50.21
79273;BME280;68718;-19.302;146.788;2023-04-08T04:36:16;100757.18;;;37.10;49.52
79273;BME280;68718;-19.302;146.788;2023-04-08T04:38:41;100752.64;;;37.25;49.33
79273;BME280;68718;-19.302;146.788;2023-04-08T04:41:07;100752.32;;;38.47;46.63
79273;BME280;68718;-19.302;146.788;2023-04-08T04:43:33;100752.37;;;38.89;45.13
79273;BME280;68718;-19.302;146.788;2023-04-08T04:45:57;100749.25;;;38.59;45.71
79273;BME280;68718;-19.302;146.788;2023-04-08T04:48:23;100749.28;;;39.51;43.56
79273;BME280;68718;-19.302;146.788;2023-04-08T04:50:54;100749.74;;;39.34;43.35
79273;BME280;68718;-19.302;146.788;2023-04-08T04:53:13;100743.20;;;39.36;43.81
79273;BME280;68718;-19.302;146.788;2023-04-08T04:55:39;100738.29;;;40.30;41.53
79273;BME280;68718;-19.302;146.788;2023-04-08T04:58:04;100739.73;;;40.30;40.66
79273;BME280;68718;-19.302;146.788;2023-04-08T05:00:30;100743.16;;;40.27;40.52
79273;BME280;68718;-19.302;146.788;2023-04-08T05:02:54;100739.26;;;39.91;40.49
79273;BME280;68718;-19.302;146.788;2023-04-08T05:05:20;100741.88;;;40.53;39.08
79273;BME280;68718;-19.302;146.788;2023-04-08T05:07:45;100735.24;;;40.96;38.05
79273;BME280;68718;-19.302;146.788;2023-04-08T05:10:11;100735.15;;;41.71;37.25
79273;BME280;68718;-19.302;146.788;2023-04-08T05:12:36;100737.68;;;40.03;39.91
79273;BME280;68718;-19.302;146.788;2023-04-08T05:15:01;100737.46;;;40.97;37.95
79273;BME280;68718;-19.302;146.788;2023-04-08T05:17:27;100732.38;;;41.99;35.48
79273;BME280;68718;-19.302;146.788;2023-04-08T05:19:52;100732.06;;;41.49;35.40
79273;BME280;68718;-19.302;146.788;2023-04-08T05:22:17;100731.64;;;41.35;35.98
79273;BME280;68718;-19.302;146.788;2023-04-08T05:24:43;100730.56;;;42.26;34.32
79273;BME280;68718;-19.302;146.788;2023-04-08T05:27:08;100729.83;;;41.76;35.12
79273;BME280;68718;-19.302;146.788;2023-04-08T05:29:33;100728.14;;;40.15;36.97
79273;BME280;68718;-19.302;146.788;2023-04-08T05:31:59;100729.46;;;38.37;40.60
79273;BME280;68718;-19.302;146.788;2023-04-08T05:34:24;100724.58;;;37.16;45.45
79273;BME280;68718;-19.302;146.788;2023-04-08T05:36:50;100722.53;;;36.28;48.26
79273;BME280;68718;-19.302;146.788;2023-04-08T05:39:14;100724.60;;;36.36;48.22
79273;BME280;68718;-19.302;146.788;2023-04-08T05:41:40;100732.34;;;35.09;52.63
79273;BME280;68718;-19.302;146.788;2023-04-08T05:44:05;100734.29;;;35.39;52.93
79273;BME280;68718;-19.302;146.788;2023-04-08T05:46:31;100729.61;;;35.91;51.69
79273;BME280;68718;-19.302;146.788;2023-04-08T05:49:00;100736.43;;;35.31;53.55
79273;BME280;68718;-19.302;146.788;2023-04-08T05:51:21;100740.80;;;35.43;53.36
79273;BME280;68718;-19.302;146.788;2023-04-08T05:53:47;100739.09;;;35.47;53.64
79273;BME280;68718;-19.302;146.788;2023-04-08T05:56:12;100741.92;;;34.89;56.19
79273;BME280;68718;-19.302;146.788;2023-04-08T05:58:37;100740.79;;;35.32;56.80
79273;BME280;68718;-19.302;146.788;2023-04-08T06:01:03;100737.61;;;34.92;56.33
79273;BME280;68718;-19.302;146.788;2023-04-08T06:03:29;100734.51;;;35.35;55.52
79273;BME280;68718;-19.302;146.788;2023-04-08T06:05:53;100737.87;;;35.94;54.18
79273;BME280;68718;-19.302;146.788;2023-04-08T06:08:18;100740.62;;;35.51;53.76
79273;BME280;68718;-19.302;146.788;2023-04-08T06:10:49;100743.54;;;34.97;54.20
79273;BME280;68718;-19.302;146.788;2023-04-08T06:13:09;100749.48;;;35.00;56.09
79273;BME280;68718;-19.302;146.788;2023-04-08T06:15:34;100754.05;;;34.28;57.88
79273;BME280;68718;-19.302;146.788;2023-04-08T06:18:00;100754.56;;;34.69;56.70
79273;BME280;68718;-19.302;146.788;2023-04-08T06:20:25;100753.74;;;34.48;57.64
79273;BME280;68718;-19.302;146.788;2023-04-08T06:22:50;100754.57;;;34.20;59.90
79273;BME280;68718;-19.302;146.788;2023-04-08T06:25:16;100758.11;;;33.27;62.39
79273;BME280;68718;-19.302;146.788;2023-04-08T06:27:42;100761.48;;;33.61;60.63
79273;BME280;68718;-19.302;146.788;2023-04-08T06:30:07;100765.19;;;33.74;61.46
79273;BME280;68718;-19.302;146.788;2023-04-08T06:32:32;100770.30;;;33.27;61.91
79273;BME280;68718;-19.302;146.788;2023-04-08T06:34:57;100771.14;;;33.99;59.80
79273;BME280;68718;-19.302;146.788;2023-04-08T06:37:22;100774.94;;;33.56;60.49
79273;BME280;68718;-19.302;146.788;2023-04-08T06:39:48;100777.80;;;34.09;59.47
79273;BME280;68718;-19.302;146.788;2023-04-08T06:42:13;100779.22;;;32.87;62.20
79273;BME280;68718;-19.302;146.788;2023-04-08T06:44:39;100783.04;;;32.59;64.90
79273;BME280;68718;-19.302;146.788;2023-04-08T06:47:05;100781.58;;;32.57;65.02
79273;BME280;68718;-19.302;146.788;2023-04-08T06:49:29;100782.98;;;32.35;65.01
79273;BME280;68718;-19.302;146.788;2023-04-08T06:51:55;100789.07;;;32.06;66.82
79273;BME280;68718;-19.302;146.788;2023-04-08T06:54:22;100786.04;;;32.54;65.33
79273;BME280;68718;-19.302;146.788;2023-04-08T06:56:46;100787.48;;;32.42;65.53
79273;BME280;68718;-19.302;146.788;2023-04-08T06:59:11;100795.31;;;32.17;66.93
79273;BME280;68718;-19.302;146.788;2023-04-08T07:01:36;100796.79;;;31.79;66.69
79273;BME280;68718;-19.302;146.788;2023-04-08T07:04:02;100801.29;;;32.29;67.20
79273;BME280;68718;-19.302;146.788;2023-04-08T07:06:27;100802.27;;;32.42;65.85
79273;BME280;68718;-19.302;146.788;2023-04-08T07:08:52;100804.30;;;32.49;65.45
79273;BME280;68718;-19.302;146.788;2023-04-08T07:11:17;100809.91;;;32.04;67.93
79273;BME280;68718;-19.302;146.788;2023-04-08T07:13:43;100818.34;;;31.95;68.62
79273;BME280;68718;-19.302;146.788;2023-04-08T07:16:08;100826.52;;;31.20;72.04
79273;BME280;68718;-19.302;146.788;2023-04-08T07:18:34;100831.27;;;31.35;70.27
79273;BME280;68718;-19.302;146.788;2023-04-08T07:21:00;100838.47;;;31.76;70.27
79273;BME280;68718;-19.302;146.788;2023-04-08T07:23:24;100842.11;;;31.53;71.09
79273;BME280;68718;-19.302;146.788;2023-04-08T07:25:50;100848.89;;;31.34;72.90
79273;BME280;68718;-19.302;146.788;2023-04-08T07:28:16;100849.98;;;30.51;74.06
79273;BME280;68718;-19.302;146.788;2023-04-08T07:30:41;100847.03;;;31.15;72.37
79273;BME280;68718;-19.302;146.788;2023-04-08T07:33:06;100845.95;;;30.82;72.99
79273;BME280;68718;-19.302;146.788;2023-04-08T07:35:33;100849.41;;;30.78;75.82
79273;BME280;68718;-19.302;146.788;2023-04-08T07:37:58;100853.16;;;30.51;74.38
79273;BME280;68718;-19.302;146.788;2023-04-08T07:40:32;100855.29;;;30.86;73.62
79273;BME280;68718;-19.302;146.788;2023-04-08T07:43:00;100854.85;;;30.60;75.30
79273;BME280;68718;-19.302;146.788;2023-04-08T07:45:13;100854.24;;;30.39;76.10
79273;BME280;68718;-19.302;146.788;2023-04-08T07:47:38;100855.72;;;30.46;77.13
79273;BME280;68718;-19.302;146.788;2023-04-08T07:50:04;100857.52;;;30.33;76.73
79273;BME280;68718;-19.302;146.788;2023-04-08T07:52:30;100862.30;;;30.17;78.79
79273;BME280;68718;-19.302;146.788;2023-04-08T07:54:55;100864.67;;;30.46;77.50
79273;BME280;68718;-19.302;146.788;2023-04-08T07:57:20;100866.67;;;30.04;78.37
79273;BME280;68718;-19.302;146.788;2023-04-08T07:59:45;100872.07;;;30.03;77.94
79273;BME280;68718;-19.302;146.788;2023-04-08T08:02:10;100875.60;;;29.99;79.61
79273;BME280;68718;-19.302;146.788;2023-04-08T08:04:35;100876.70;;;30.56;76.68
79273;BME280;68718;-19.302;146.788;2023-04-08T08:07:01;100877.24;;;31.23;74.17
79273;BME280;68718;-19.302;146.788;2023-04-08T08:09:26;100880.80;;;30.55;77.02
79273;BME280;68718;-19.302;146.788;2023-04-08T08:11:51;100882.61;;;30.26;77.97
79273;BME280;68718;-19.302;146.788;2023-04-08T08:14:17;100884.46;;;30.30;79.27
79273;BME280;68718;-19.302;146.788;2023-04-08T08:16:42;100884.42;;;29.79;79.40
79273;BME280;68718;-19.302;146.788;2023-04-08T08:19:08;100885.22;;;29.62;80.98
79273;BME280;68718;-19.302;146.788;2023-04-08T08:21:33;100887.15;;;29.13;82.20
79273;BME280;68718;-19.302;146.788;2023-04-08T08:23:58;100892.18;;;29.77;80.90
79273;BME280;68718;-19.302;146.788;2023-04-08T08:26:23;100893.73;;;29.50;80.74
79273;BME280;68718;-19.302;146.788;2023-04-08T08:28:48;100897.25;;;29.43;81.44
79273;BME280;68718;-19.302;146.788;2023-04-08T08:31:14;100899.13;;;30.18;79.41
79273;BME280;68718;-19.302;146.788;2023-04-08T08:33:39;100901.38;;;29.90;79.60
79273;BME280;68718;-19.302;146.788;2023-04-08T08:36:05;100904.78;;;30.10;78.76
79273;BME280;68718;-19.302;146.788;2023-04-08T08:38:30;100907.68;;;29.54;81.43
79273;BME280;68718;-19.302;146.788;2023-04-08T08:40:56;100909.20;;;30.22;78.61
79273;BME280;68718;-19.302;146.788;2023-04-08T08:43:21;100914.07;;;29.52;80.66
79273;BME280;68718;-19.302;146.788;2023-04-08T08:45:46;100915.75;;;29.88;80.85
79273;BME280;68718;-19.302;146.788;2023-04-08T08:48:12;100927.99;;;28.85;83.91
79273;BME280;68718;-19.302;146.788;2023-04-08T08:50:37;100928.95;;;29.45;82.25
79273;BME280;68718;-19.302;146.788;2023-04-08T08:53:03;100932.73;;;29.26;82.44
79273;BME280;68718;-19.302;146.788;2023-04-08T08:55:31;100938.09;;;28.86;82.48
79273;BME280;68718;-19.302;146.788;2023-04-08T08:57:53;100941.31;;;29.21;81.87
79273;BME280;68718;-19.302;146.788;2023-04-08T09:00:18;100941.05;;;30.17;80.02
79273;BME280;68718;-19.302;146.788;2023-04-08T09:02:44;100945.55;;;29.69;80.08
79273;BME280;68718;-19.302;146.788;2023-04-08T09:05:09;100950.03;;;29.84;80.12
79273;BME280;68718;-19.302;146.788;2023-04-08T09:07:37;100952.08;;;29.85;81.24
79273;BME280;68718;-19.302;146.788;2023-04-08T09:10:00;100956.07;;;29.22;82.06
79273;BME280;68718;-19.302;146.788;2023-04-08T09:12:26;100955.66;;;29.76;79.97
79273;BME280;68718;-19.302;146.788;2023-04-08T09:14:50;100957.88;;;29.92;80.95
79273;BME280;68718;-19.302;146.788;2023-04-08T09:17:16;100960.69;;;29.48;80.97
79273;BME280;68718;-19.302;146.788;2023-04-08T09:22:08;100968.12;;;29.58;82.25
79273;BME280;68718;-19.302;146.788;2023-04-08T09:24:32;100968.04;;;29.92;80.95
79273;BME280;68718;-19.302;146.788;2023-04-08T09:26:58;100971.19;;;29.92;80.72
79273;BME280;68718;-19.302;146.788;2023-04-08T09:29:24;100975.19;;;29.30;82.08
79273;BME280;68718;-19.302;146.788;2023-04-08T09:31:54;100973.96;;;29.97;81.29
79273;BME280;68718;-19.302;146.788;2023-04-08T09:34:15;100978.63;;;29.41;83.14
79273;BME280;68718;-19.302;146.788;2023-04-08T09:36:39;100976.36;;;28.96;83.83
79273;BME280;68718;-19.302;146.788;2023-04-08T09:39:04;100980.03;;;29.08;83.82
79273;BME280;68718;-19.302;146.788;2023-04-08T09:41:33;100982.67;;;30.10;80.70
79273;BME280;68718;-19.302;146.788;2023-04-08T09:43:56;100982.67;;;29.10;83.97
79273;BME280;68718;-19.302;146.788;2023-04-08T09:46:25;100986.46;;;29.63;82.48
79273;BME280;68718;-19.302;146.788;2023-04-08T09:48:52;100988.49;;;29.81;81.42
79273;BME280;68718;-19.302;146.788;2023-04-08T09:51:16;100995.78;;;29.54;81.94
79273;BME280;68718;-19.302;146.788;2023-04-08T09:53:40;101001.92;;;29.33;84.26
79273;BME280;68718;-19.302;146.788;2023-04-08T09:56:04;101009.20;;;29.22;83.59
79273;BME280;68718;-19.302;146.788;2023-04-08T09:58:33;101014.39;;;29.68;82.80
79273;BME280;68718;-19.302;146.788;2023-04-08T10:00:54;101020.98;;;29.53;84.01
79273;BME280;68718;-19.302;146.788;2023-04-08T10:03:26;101026.87;;;29.16;84.34
79273;BME280;68718;-19.302;146.788;2023-04-08T10:05:44;101028.19;;;29.71;83.55
79273;BME280;68718;-19.302;146.788;2023-04-08T10:08:08;101031.11;;;29.66;83.72
79273;BME280;68718;-19.302;146.788;2023-04-08T10:10:34;101035.51;;;29.32;83.69
79273;BME280;68718;-19.302;146.788;2023-04-08T10:12:59;101036.53;;;29.72;83.83
79273;BME280;68718;-19.302;146.788;2023-04-08T10:15:26;101045.38;;;29.05;86.49
79273;BME280;68718;-19.302;146.788;2023-04-08T10:17:49;101049.87;;;29.21;86.15
79273;BME280;68718;-19.302;146.788;2023-04-08T10:22:49;101054.65;;;28.65;86.81
79273;BME280;68718;-19.302;146.788;2023-04-08T10:27:38;101059.91;;;28.54;88.20
79273;BME280;68718;-19.302;146.788;2023-04-08T10:29:56;101065.34;;;28.23;88.28
79273;BME280;68718;-19.302;146.788;2023-04-08T10:32:30;101069.85;;;28.23;88.98
79273;BME280;68718;-19.302;146.788;2023-04-08T10:34:51;101069.55;;;28.69;87.52
79273;BME280;68718;-19.302;146.788;2023-04-08T10:37:13;101071.47;;;28.63;87.69
79273;BME280;68718;-19.302;146.788;2023-04-08T10:39:38;101072.97;;;28.27;88.22
79273;BME280;68718;-19.302;146.788;2023-04-08T10:42:03;101075.26;;;28.09;88.38
79273;BME280;68718;-19.302;146.788;2023-04-08T10:44:28;101080.61;;;28.26;87.39
79273;BME280;68718;-19.302;146.788;2023-04-08T10:46:54;101086.11;;;28.20;88.49
79273;BME280;68718;-19.302;146.788;2023-04-08T10:49:20;101088.08;;;27.77;89.17
79273;BME280;68718;-19.302;146.788;2023-04-08T10:51:45;101092.41;;;28.29;86.96
79273;BME280;68718;-19.302;146.788;2023-04-08T10:54:11;101092.53;;;28.22;87.51
79273;BME280;68718;-19.302;146.788;2023-04-08T10:56:36;101097.50;;;28.24;87.85
79273;BME280;68718;-19.302;146.788;2023-04-08T10:59:01;101098.86;;;28.33;88.33
79273;BME280;68718;-19.302;146.788;2023-04-08T11:01:26;101102.60;;;27.71;90.91
79273;BME280;68718;-19.302;146.788;2023-04-08T11:03:52;101103.91;;;27.72;89.14
79273;BME280;68718;-19.302;146.788;2023-04-08T11:06:17;101108.37;;;27.89;90.39
79273;BME280;68718;-19.302;146.788;2023-04-08T11:08:42;101113.74;;;27.76;90.76
79273;BME280;68718;-19.302;146.788;2023-04-08T11:11:08;101114.48;;;27.91;90.59
79273;BME280;68718;-19.302;146.788;2023-04-08T11:13:33;101117.21;;;27.92;88.75
79273;BME280;68718;-19.302;146.788;2023-04-08T11:15:59;101119.50;;;28.05;87.52
79273;BME280;68718;-19.302;146.788;2023-04-08T11:18:24;101124.20;;;28.02;89.80
79273;BME280;68718;-19.302;146.788;2023-04-08T11:20:51;101127.35;;;27.58;90.62
79273;BME280;68718;-19.302;146.788;2023-04-08T11:23:14;101126.04;;;27.43;91.27
79273;BME280;68718;-19.302;146.788;2023-04-08T11:25:41;101127.82;;;27.87;88.44
79273;BME280;68718;-19.302;146.788;2023-04-08T11:28:06;101131.75;;;27.83;90.00
79273;BME280;68718;-19.302;146.788;2023-04-08T11:30:31;101130.33;;;27.45;90.99
79273;BME280;68718;-19.302;146.788;2023-04-08T11:32:56;101134.76;;;28.04;88.20
79273;BME280;68718;-19.302;146.788;2023-04-08T11:35:21;101129.34;;;28.91;83.57
79273;BME280;68718;-19.302;146.788;2023-04-08T11:37:47;101133.14;;;27.95;88.19
79273;BME280;68718;-19.302;146.788;2023-04-08T11:40:18;101133.05;;;26.80;93.08
79273;BME280;68718;-19.302;146.788;2023-04-08T11:42:38;101128.55;;;27.54;90.33
79273;BME280;68718;-19.302;146.788;2023-04-08T11:45:11;101130.69;;;27.65;89.81
79273;BME280;68718;-19.302;146.788;2023-04-08T11:47:32;101128.44;;;27.58;88.78
79273;BME280;68718;-19.302;146.788;2023-04-08T11:49:54;101131.43;;;27.39;90.29
79273;BME280;68718;-19.302;146.788;2023-04-08T11:52:19;101130.55;;;27.67;89.27
79273;BME280;68718;-19.302;146.788;2023-04-08T11:54:44;101131.84;;;27.85;90.64
79273;BME280;68718;-19.302;146.788;2023-04-08T11:57:10;101132.22;;;27.31;89.52
79273;BME280;68718;-19.302;146.788;2023-04-08T11:59:35;101131.55;;;28.14;89.17
79273;BME280;68718;-19.302;146.788;2023-04-08T12:02:00;101128.87;;;27.84;90.03
79273;BME280;68718;-19.302;146.788;2023-04-08T12:04:25;101132.27;;;27.59;90.54
79273;BME280;68718;-19.302;146.788;2023-04-08T12:06:51;101134.07;;;27.58;91.28
79273;BME280;68718;-19.302;146.788;2023-04-08T12:09:16;101133.15;;;27.41;90.48
79273;BME280;68718;-19.302;146.788;2023-04-08T12:11:42;101130.41;;;27.54;91.94
79273;BME280;68718;-19.302;146.788;2023-04-08T12:14:07;101131.94;;;27.76;90.41
79273;BME280;68718;-19.302;146.788;2023-04-08T12:16:32;101127.40;;;27.45;89.57